WEATHER/FLIGHT PLANNING

Hattiesburg Radar

 

 

 

 

Weather Links

Flight Planning Links

 

METAR

2018/01/18 22:53 KHBG 182253Z AUTO 00000KT 10SM CLR 06/M11 A3043 RMK AO2 SLP307 T00611106

TAF

2018/01/18 18:22 TAF KHBG 181720Z 1818/1918 VRB03KT P6SM SKC